sensor_id;sensor_type;location;lat;lon;timestamp;P1;durP1;ratioP1;P2;durP2;ratioP2
74689;SDS011;63221;51.860;-2.188;2023-08-06T00:00:50;3.97;;;1.50;;
74689;SDS011;63221;51.860;-2.188;2023-08-06T00:03:15;4.63;;;1.10;;
74689;SDS011;63221;51.860;-2.188;2023-08-06T00:05:41;3.57;;;2.07;;
74689;SDS011;63221;51.860;-2.188;2023-08-06T00:08:08;3.03;;;1.60;;
74689;SDS011;63221;51.860;-2.188;2023-08-06T00:10:33;3.63;;;1.23;;
74689;SDS011;63221;51.860;-2.188;2023-08-06T00:12:58;2.65;;;1.15;;
74689;SDS011;63221;51.860;-2.188;2023-08-06T00:15:24;3.10;;;1.30;;
74689;SDS011;63221;51.860;-2.188;2023-08-06T00:17:49;2.67;;;1.53;;
74689;SDS011;63221;51.860;-2.188;2023-08-06T00:20:15;3.03;;;1.30;;
74689;SDS011;63221;51.860;-2.188;2023-08-06T00:22:40;4.23;;;1.30;;
74689;SDS011;63221;51.860;-2.188;2023-08-06T00:25:05;7.70;;;1.58;;
74689;SDS011;63221;51.860;-2.188;2023-08-06T00:27:31;3.57;;;1.83;;
74689;SDS011;63221;51.860;-2.188;2023-08-06T00:29:57;3.35;;;1.40;;
74689;SDS011;63221;51.860;-2.188;2023-08-06T00:32:23;5.38;;;1.85;;
74689;SDS011;63221;51.860;-2.188;2023-08-06T00:34:49;3.47;;;1.73;;
74689;SDS011;63221;51.860;-2.188;2023-08-06T00:37:15;3.67;;;1.70;;
74689;SDS011;63221;51.860;-2.188;2023-08-06T00:39:41;4.07;;;2.17;;
74689;SDS011;63221;51.860;-2.188;2023-08-06T00:42:07;3.65;;;1.58;;
74689;SDS011;63221;51.860;-2.188;2023-08-06T00:44:33;5.23;;;2.17;;
74689;SDS011;63221;51.860;-2.188;2023-08-06T00:46:58;3.67;;;1.50;;
74689;SDS011;63221;51.860;-2.188;2023-08-06T00:49:24;5.45;;;1.95;;
74689;SDS011;63221;51.860;-2.188;2023-08-06T00:51:49;3.63;;;1.63;;
74689;SDS011;63221;51.860;-2.188;2023-08-06T00:54:15;4.37;;;1.33;;
74689;SDS011;63221;51.860;-2.188;2023-08-06T00:56:40;7.70;;;1.63;;
74689;SDS011;63221;51.860;-2.188;2023-08-06T00:59:07;3.17;;;1.00;;
74689;SDS011;63221;51.860;-2.188;2023-08-06T01:01:33;3.10;;;1.60;;
74689;SDS011;63221;51.860;-2.188;2023-08-06T01:03:58;7.10;;;1.80;;
74689;SDS011;63221;51.860;-2.188;2023-08-06T01:06:29;1.87;;;1.10;;
74689;SDS011;63221;51.860;-2.188;2023-08-06T01:11:44;4.50;;;1.73;;
74689;SDS011;63221;51.860;-2.188;2023-08-06T01:17:21;5.25;;;1.83;;
74689;SDS011;63221;51.860;-2.188;2023-08-06T01:19:46;3.63;;;1.20;;
74689;SDS011;63221;51.860;-2.188;2023-08-06T01:22:12;3.57;;;1.63;;
74689;SDS011;63221;51.860;-2.188;2023-08-06T01:24:37;3.73;;;1.43;;
74689;SDS011;63221;51.860;-2.188;2023-08-06T01:27:08;5.73;;;1.77;;
74689;SDS011;63221;51.860;-2.188;2023-08-06T01:29:53;2.85;;;1.38;;
74689;SDS011;63221;51.860;-2.188;2023-08-06T01:32:27;3.10;;;1.43;;
74689;SDS011;63221;51.860;-2.188;2023-08-06T01:34:55;3.97;;;1.40;;
74689;SDS011;63221;51.860;-2.188;2023-08-06T01:37:21;4.25;;;1.73;;
74689;SDS011;63221;51.860;-2.188;2023-08-06T01:39:46;3.37;;;1.50;;
74689;SDS011;63221;51.860;-2.188;2023-08-06T01:42:11;2.03;;;1.10;;
74689;SDS011;63221;51.860;-2.188;2023-08-06T01:44:37;3.55;;;1.60;;
74689;SDS011;63221;51.860;-2.188;2023-08-06T01:47:02;2.80;;;1.97;;
74689;SDS011;63221;51.860;-2.188;2023-08-06T01:49:28;4.30;;;2.20;;
74689;SDS011;63221;51.860;-2.188;2023-08-06T01:51:54;3.75;;;1.48;;
74689;SDS011;63221;51.860;-2.188;2023-08-06T01:54:19;3.57;;;1.10;;
74689;SDS011;63221;51.860;-2.188;2023-08-06T01:56:44;4.33;;;1.37;;
74689;SDS011;63221;51.860;-2.188;2023-08-06T01:59:10;2.90;;;1.37;;
74689;SDS011;63221;51.860;-2.188;2023-08-06T02:01:35;4.25;;;1.80;;
74689;SDS011;63221;51.860;-2.188;2023-08-06T02:04:01;3.47;;;1.13;;
74689;SDS011;63221;51.860;-2.188;2023-08-06T02:06:26;4.20;;;1.20;;
74689;SDS011;63221;51.860;-2.188;2023-08-06T02:08:51;3.43;;;1.30;;
74689;SDS011;63221;51.860;-2.188;2023-08-06T02:11:17;3.13;;;1.10;;
74689;SDS011;63221;51.860;-2.188;2023-08-06T02:13:43;4.10;;;1.67;;
74689;SDS011;63221;51.860;-2.188;2023-08-06T02:16:08;3.55;;;1.65;;
74689;SDS011;63221;51.860;-2.188;2023-08-06T02:18:34;3.40;;;1.20;;
74689;SDS011;63221;51.860;-2.188;2023-08-06T02:20:59;4.40;;;1.40;;
74689;SDS011;63221;51.860;-2.188;2023-08-06T02:23:25;2.85;;;1.27;;
74689;SDS011;63221;51.860;-2.188;2023-08-06T02:26:03;4.33;;;1.47;;
74689;SDS011;63221;51.860;-2.188;2023-08-06T02:28:30;3.17;;;1.35;;
74689;SDS011;63221;51.860;-2.188;2023-08-06T02:30:56;4.70;;;1.25;;
74689;SDS011;63221;51.860;-2.188;2023-08-06T02:33:21;3.60;;;1.23;;
74689;SDS011;63221;51.860;-2.188;2023-08-06T02:35:46;2.50;;;1.30;;
74689;SDS011;63221;51.860;-2.188;2023-08-06T02:38:12;2.28;;;1.17;;
74689;SDS011;63221;51.860;-2.188;2023-08-06T02:40:42;2.40;;;1.23;;
74689;SDS011;63221;51.860;-2.188;2023-08-06T02:43:11;4.13;;;1.67;;
74689;SDS011;63221;51.860;-2.188;2023-08-06T02:45:37;3.37;;;1.73;;
74689;SDS011;63221;51.860;-2.188;2023-08-06T02:48:02;2.90;;;1.43;;
74689;SDS011;63221;51.860;-2.188;2023-08-06T02:50:28;2.47;;;0.97;;
74689;SDS011;63221;51.860;-2.188;2023-08-06T02:52:53;3.17;;;1.83;;
74689;SDS011;63221;51.860;-2.188;2023-08-06T02:55:19;2.50;;;1.37;;
74689;SDS011;63221;51.860;-2.188;2023-08-06T02:57:44;2.83;;;1.57;;
74689;SDS011;63221;51.860;-2.188;2023-08-06T03:00:10;3.13;;;1.27;;
74689;SDS011;63221;51.860;-2.188;2023-08-06T03:02:36;4.70;;;1.80;;
74689;SDS011;63221;51.860;-2.188;2023-08-06T03:05:02;6.63;;;2.07;;
74689;SDS011;63221;51.860;-2.188;2023-08-06T03:07:28;3.25;;;1.30;;
74689;SDS011;63221;51.860;-2.188;2023-08-06T03:09:54;2.23;;;0.80;;
74689;SDS011;63221;51.860;-2.188;2023-08-06T03:12:19;1.92;;;0.88;;
74689;SDS011;63221;51.860;-2.188;2023-08-06T03:14:45;3.03;;;1.30;;
74689;SDS011;63221;51.860;-2.188;2023-08-06T03:17:10;4.97;;;1.47;;
74689;SDS011;63221;51.860;-2.188;2023-08-06T03:19:36;1.87;;;0.93;;
74689;SDS011;63221;51.860;-2.188;2023-08-06T03:22:01;3.35;;;0.90;;
74689;SDS011;63221;51.860;-2.188;2023-08-06T03:24:26;3.20;;;1.27;;
74689;SDS011;63221;51.860;-2.188;2023-08-06T03:26:52;3.83;;;1.10;;
74689;SDS011;63221;51.860;-2.188;2023-08-06T03:29:17;4.63;;;1.17;;
74689;SDS011;63221;51.860;-2.188;2023-08-06T03:31:43;2.22;;;1.20;;
74689;SDS011;63221;51.860;-2.188;2023-08-06T03:34:08;2.00;;;1.07;;
74689;SDS011;63221;51.860;-2.188;2023-08-06T03:36:33;3.10;;;1.10;;
74689;SDS011;63221;51.860;-2.188;2023-08-06T03:38:59;2.23;;;0.70;;
74689;SDS011;63221;51.860;-2.188;2023-08-06T03:41:24;3.07;;;1.60;;
74689;SDS011;63221;51.860;-2.188;2023-08-06T03:43:49;2.80;;;0.70;;
74689;SDS011;63221;51.860;-2.188;2023-08-06T03:46:15;2.57;;;1.00;;
74689;SDS011;63221;51.860;-2.188;2023-08-06T03:48:40;2.57;;;1.23;;
74689;SDS011;63221;51.860;-2.188;2023-08-06T03:51:06;2.53;;;1.67;;
74689;SDS011;63221;51.860;-2.188;2023-08-06T03:53:31;4.13;;;1.40;;
74689;SDS011;63221;51.860;-2.188;2023-08-06T03:55:56;2.47;;;0.90;;
74689;SDS011;63221;51.860;-2.188;2023-08-06T03:58:25;4.40;;;1.50;;
74689;SDS011;63221;51.860;-2.188;2023-08-06T04:00:57;2.70;;;1.45;;
74689;SDS011;63221;51.860;-2.188;2023-08-06T04:03:23;2.40;;;0.88;;
74689;SDS011;63221;51.860;-2.188;2023-08-06T04:05:49;3.40;;;1.37;;
74689;SDS011;63221;51.860;-2.188;2023-08-06T04:08:14;3.63;;;1.17;;
74689;SDS011;63221;51.860;-2.188;2023-08-06T04:10:40;3.87;;;1.67;;
74689;SDS011;63221;51.860;-2.188;2023-08-06T04:13:05;2.88;;;1.13;;
74689;SDS011;63221;51.860;-2.188;2023-08-06T04:15:33;2.10;;;0.73;;
74689;SDS011;63221;51.860;-2.188;2023-08-06T04:17:59;3.38;;;0.75;;
74689;SDS011;63221;51.860;-2.188;2023-08-06T04:20:24;1.53;;;0.80;;
74689;SDS011;63221;51.860;-2.188;2023-08-06T04:22:49;2.40;;;1.70;;
74689;SDS011;63221;51.860;-2.188;2023-08-06T04:25:15;2.67;;;1.30;;
74689;SDS011;63221;51.860;-2.188;2023-08-06T04:27:45;5.80;;;0.75;;
74689;SDS011;63221;51.860;-2.188;2023-08-06T04:30:11;2.03;;;1.27;;
74689;SDS011;63221;51.860;-2.188;2023-08-06T04:32:37;3.33;;;1.80;;
74689;SDS011;63221;51.860;-2.188;2023-08-06T04:35:03;5.75;;;1.63;;
74689;SDS011;63221;51.860;-2.188;2023-08-06T04:37:28;3.70;;;1.27;;
74689;SDS011;63221;51.860;-2.188;2023-08-06T04:39:54;2.65;;;1.13;;
74689;SDS011;63221;51.860;-2.188;2023-08-06T04:42:19;5.80;;;1.63;;
74689;SDS011;63221;51.860;-2.188;2023-08-06T04:44:44;2.83;;;1.10;;
74689;SDS011;63221;51.860;-2.188;2023-08-06T04:47:10;2.77;;;1.83;;
74689;SDS011;63221;51.860;-2.188;2023-08-06T04:49:35;3.40;;;1.57;;
74689;SDS011;63221;51.860;-2.188;2023-08-06T04:52:01;6.17;;;0.97;;
74689;SDS011;63221;51.860;-2.188;2023-08-06T04:54:26;4.83;;;2.27;;
74689;SDS011;63221;51.860;-2.188;2023-08-06T04:56:52;4.50;;;1.80;;
74689;SDS011;63221;51.860;-2.188;2023-08-06T04:59:17;3.50;;;1.67;;
74689;SDS011;63221;51.860;-2.188;2023-08-06T05:01:42;4.25;;;1.55;;
74689;SDS011;63221;51.860;-2.188;2023-08-06T05:04:08;2.93;;;1.33;;
74689;SDS011;63221;51.860;-2.188;2023-08-06T05:06:33;3.90;;;1.53;;
74689;SDS011;63221;51.860;-2.188;2023-08-06T05:08:59;5.77;;;1.20;;
74689;SDS011;63221;51.860;-2.188;2023-08-06T05:11:24;4.82;;;1.33;;
74689;SDS011;63221;51.860;-2.188;2023-08-06T05:13:49;3.80;;;2.13;;
74689;SDS011;63221;51.860;-2.188;2023-08-06T05:16:15;5.27;;;2.80;;
74689;SDS011;63221;51.860;-2.188;2023-08-06T05:18:40;4.03;;;2.43;;
74689;SDS011;63221;51.860;-2.188;2023-08-06T05:21:06;5.60;;;3.63;;
74689;SDS011;63221;51.860;-2.188;2023-08-06T05:23:32;8.47;;;6.03;;
74689;SDS011;63221;51.860;-2.188;2023-08-06T05:25:57;8.60;;;5.50;;
74689;SDS011;63221;51.860;-2.188;2023-08-06T05:28:23;9.73;;;5.73;;
74689;SDS011;63221;51.860;-2.188;2023-08-06T05:30:48;11.67;;;8.47;;
74689;SDS011;63221;51.860;-2.188;2023-08-06T05:33:13;19.73;;;13.00;;
74689;SDS011;63221;51.860;-2.188;2023-08-06T05:35:40;10.77;;;8.83;;
74689;SDS011;63221;51.860;-2.188;2023-08-06T05:38:06;12.02;;;7.25;;
74689;SDS011;63221;51.860;-2.188;2023-08-06T05:40:35;7.75;;;5.05;;
74689;SDS011;63221;51.860;-2.188;2023-08-06T05:43:00;6.33;;;4.73;;
74689;SDS011;63221;51.860;-2.188;2023-08-06T05:45:26;5.03;;;2.83;;
74689;SDS011;63221;51.860;-2.188;2023-08-06T05:47:51;6.77;;;2.70;;
74689;SDS011;63221;51.860;-2.188;2023-08-06T05:50:19;4.82;;;2.30;;
74689;SDS011;63221;51.860;-2.188;2023-08-06T05:52:44;4.20;;;1.37;;
74689;SDS011;63221;51.860;-2.188;2023-08-06T05:55:09;6.87;;;3.43;;
74689;SDS011;63221;51.860;-2.188;2023-08-06T05:57:35;3.50;;;2.07;;
74689;SDS011;63221;51.860;-2.188;2023-08-06T06:00:01;4.67;;;2.33;;
74689;SDS011;63221;51.860;-2.188;2023-08-06T06:02:26;4.25;;;2.58;;
74689;SDS011;63221;51.860;-2.188;2023-08-06T06:04:52;5.83;;;3.37;;
74689;SDS011;63221;51.860;-2.188;2023-08-06T06:07:17;4.87;;;3.00;;
74689;SDS011;63221;51.860;-2.188;2023-08-06T06:09:43;4.60;;;2.17;;
74689;SDS011;63221;51.860;-2.188;2023-08-06T06:12:08;2.43;;;1.60;;
74689;SDS011;63221;51.860;-2.188;2023-08-06T06:14:34;3.67;;;1.53;;
74689;SDS011;63221;51.860;-2.188;2023-08-06T06:16:59;3.95;;;1.38;;
74689;SDS011;63221;51.860;-2.188;2023-08-06T06:19:27;2.57;;;1.20;;
74689;SDS011;63221;51.860;-2.188;2023-08-06T06:21:53;3.60;;;1.33;;
74689;SDS011;63221;51.860;-2.188;2023-08-06T06:24:18;2.30;;;1.10;;
74689;SDS011;63221;51.860;-2.188;2023-08-06T06:26:43;3.33;;;1.47;;
74689;SDS011;63221;51.860;-2.188;2023-08-06T06:29:09;5.33;;;1.10;;
74689;SDS011;63221;51.860;-2.188;2023-08-06T06:31:34;3.67;;;1.08;;
74689;SDS011;63221;51.860;-2.188;2023-08-06T06:34:00;1.87;;;1.33;;
74689;SDS011;63221;51.860;-2.188;2023-08-06T06:36:26;2.10;;;1.20;;
74689;SDS011;63221;51.860;-2.188;2023-08-06T06:38:51;2.50;;;1.15;;
74689;SDS011;63221;51.860;-2.188;2023-08-06T06:41:16;3.27;;;0.97;;
74689;SDS011;63221;51.860;-2.188;2023-08-06T06:43:42;3.73;;;1.73;;
74689;SDS011;63221;51.860;-2.188;2023-08-06T06:46:07;4.70;;;1.67;;
74689;SDS011;63221;51.860;-2.188;2023-08-06T06:48:33;3.00;;;1.45;;
74689;SDS011;63221;51.860;-2.188;2023-08-06T06:50:58;2.33;;;1.67;;
74689;SDS011;63221;51.860;-2.188;2023-08-06T06:53:24;2.30;;;1.43;;
74689;SDS011;63221;51.860;-2.188;2023-08-06T06:55:53;1.67;;;0.70;;
74689;SDS011;63221;51.860;-2.188;2023-08-06T06:58:19;3.75;;;1.35;;
74689;SDS011;63221;51.860;-2.188;2023-08-06T07:00:46;4.40;;;1.10;;
74689;SDS011;63221;51.860;-2.188;2023-08-06T07:03:12;4.28;;;1.95;;
74689;SDS011;63221;51.860;-2.188;2023-08-06T07:05:37;3.27;;;1.10;;
74689;SDS011;63221;51.860;-2.188;2023-08-06T07:08:03;3.63;;;1.60;;
74689;SDS011;63221;51.860;-2.188;2023-08-06T07:10:28;3.83;;;1.15;;
74689;SDS011;63221;51.860;-2.188;2023-08-06T07:12:54;2.57;;;1.20;;
74689;SDS011;63221;51.860;-2.188;2023-08-06T07:15:19;2.97;;;1.40;;
74689;SDS011;63221;51.860;-2.188;2023-08-06T07:17:45;2.38;;;0.75;;
74689;SDS011;63221;51.860;-2.188;2023-08-06T07:20:10;1.60;;;0.60;;
74689;SDS011;63221;51.860;-2.188;2023-08-06T07:22:36;2.50;;;0.70;;
74689;SDS011;63221;51.860;-2.188;2023-08-06T07:25:01;1.83;;;1.02;;
74689;SDS011;63221;51.860;-2.188;2023-08-06T07:27:27;2.63;;;1.07;;
74689;SDS011;63221;51.860;-2.188;2023-08-06T07:29:52;2.17;;;1.10;;
74689;SDS011;63221;51.860;-2.188;2023-08-06T07:32:19;1.58;;;0.60;;
74689;SDS011;63221;51.860;-2.188;2023-08-06T07:34:45;1.30;;;0.63;;
74689;SDS011;63221;51.860;-2.188;2023-08-06T07:37:10;1.90;;;0.40;;
74689;SDS011;63221;51.860;-2.188;2023-08-06T07:39:37;0.95;;;0.30;;
74689;SDS011;63221;51.860;-2.188;2023-08-06T07:42:04;1.95;;;0.68;;
74689;SDS011;63221;51.860;-2.188;2023-08-06T07:44:32;0.93;;;0.38;;
74689;SDS011;63221;51.860;-2.188;2023-08-06T07:46:57;1.30;;;0.80;;
74689;SDS011;63221;51.860;-2.188;2023-08-06T07:49:23;1.30;;;0.50;;
74689;SDS011;63221;51.860;-2.188;2023-08-06T07:51:48;2.33;;;0.40;;
74689;SDS011;63221;51.860;-2.188;2023-08-06T07:54:13;1.33;;;0.40;;
74689;SDS011;63221;51.860;-2.188;2023-08-06T07:56:39;1.00;;;0.40;;
74689;SDS011;63221;51.860;-2.188;2023-08-06T07:59:05;0.95;;;0.50;;
74689;SDS011;63221;51.860;-2.188;2023-08-06T08:01:30;1.10;;;0.77;;
74689;SDS011;63221;51.860;-2.188;2023-08-06T08:03:55;1.10;;;0.33;;
74689;SDS011;63221;51.860;-2.188;2023-08-06T08:06:21;1.57;;;0.77;;
74689;SDS011;63221;51.860;-2.188;2023-08-06T08:08:46;1.60;;;0.63;;
74689;SDS011;63221;51.860;-2.188;2023-08-06T08:11:12;0.90;;;0.40;;
74689;SDS011;63221;51.860;-2.188;2023-08-06T08:13:39;2.33;;;0.73;;
74689;SDS011;63221;51.860;-2.188;2023-08-06T08:16:04;1.40;;;0.70;;
74689;SDS011;63221;51.860;-2.188;2023-08-06T08:18:30;2.43;;;1.20;;
74689;SDS011;63221;51.860;-2.188;2023-08-06T08:20:56;1.10;;;0.57;;
74689;SDS011;63221;51.860;-2.188;2023-08-06T08:23:22;2.65;;;1.00;;
74689;SDS011;63221;51.860;-2.188;2023-08-06T08:25:47;2.03;;;1.13;;
74689;SDS011;63221;51.860;-2.188;2023-08-06T08:28:12;1.97;;;0.83;;
74689;SDS011;63221;51.860;-2.188;2023-08-06T08:30:40;1.20;;;0.67;;
74689;SDS011;63221;51.860;-2.188;2023-08-06T08:33:05;1.00;;;0.90;;
74689;SDS011;63221;51.860;-2.188;2023-08-06T08:35:32;2.83;;;1.10;;
74689;SDS011;63221;51.860;-2.188;2023-08-06T08:37:58;2.03;;;0.53;;
74689;SDS011;63221;51.860;-2.188;2023-08-06T08:40:24;2.53;;;0.52;;
74689;SDS011;63221;51.860;-2.188;2023-08-06T08:42:55;1.70;;;0.70;;
74689;SDS011;63221;51.860;-2.188;2023-08-06T08:45:20;1.35;;;1.10;;
74689;SDS011;63221;51.860;-2.188;2023-08-06T08:47:47;1.50;;;0.85;;
74689;SDS011;63221;51.860;-2.188;2023-08-06T08:50:13;1.20;;;0.73;;
74689;SDS011;63221;51.860;-2.188;2023-08-06T08:52:39;1.13;;;0.60;;
74689;SDS011;63221;51.860;-2.188;2023-08-06T08:55:08;1.90;;;0.90;;
74689;SDS011;63221;51.860;-2.188;2023-08-06T08:57:33;1.40;;;0.63;;
74689;SDS011;63221;51.860;-2.188;2023-08-06T08:59:59;1.33;;;0.80;;
74689;SDS011;63221;51.860;-2.188;2023-08-06T09:02:25;0.88;;;0.43;;
74689;SDS011;63221;51.860;-2.188;2023-08-06T09:04:55;1.37;;;0.50;;
74689;SDS011;63221;51.860;-2.188;2023-08-06T09:07:22;2.10;;;0.93;;
74689;SDS011;63221;51.860;-2.188;2023-08-06T09:09:48;2.92;;;0.88;;
74689;SDS011;63221;51.860;-2.188;2023-08-06T09:12:15;1.17;;;0.60;;
74689;SDS011;63221;51.860;-2.188;2023-08-06T09:14:41;2.20;;;1.13;;
74689;SDS011;63221;51.860;-2.188;2023-08-06T09:17:07;1.30;;;1.00;;
74689;SDS011;63221;51.860;-2.188;2023-08-06T09:19:33;1.23;;;0.60;;
74689;SDS011;63221;51.860;-2.188;2023-08-06T09:21:59;2.23;;;0.53;;
74689;SDS011;63221;51.860;-2.188;2023-08-06T09:24:24;2.20;;;1.10;;
74689;SDS011;63221;51.860;-2.188;2023-08-06T09:26:51;2.30;;;0.70;;
74689;SDS011;63221;51.860;-2.188;2023-08-06T09:29:17;1.80;;;1.03;;
74689;SDS011;63221;51.860;-2.188;2023-08-06T09:31:43;1.43;;;0.97;;
74689;SDS011;63221;51.860;-2.188;2023-08-06T09:34:21;1.38;;;0.90;;
74689;SDS011;63221;51.860;-2.188;2023-08-06T09:36:51;0.73;;;0.68;;
74689;SDS011;63221;51.860;-2.188;2023-08-06T09:39:18;0.93;;;0.40;;
74689;SDS011;63221;51.860;-2.188;2023-08-06T09:41:45;1.42;;;0.68;;
74689;SDS011;63221;51.860;-2.188;2023-08-06T09:44:16;2.38;;;0.93;;
74689;SDS011;63221;51.860;-2.188;2023-08-06T09:46:53;0.80;;;0.47;;
74689;SDS011;63221;51.860;-2.188;2023-08-06T09:49:20;1.75;;;0.85;;
74689;SDS011;63221;51.860;-2.188;2023-08-06T09:52:09;1.00;;;0.60;;
74689;SDS011;63221;51.860;-2.188;2023-08-06T09:54:36;7.30;;;0.75;;
74689;SDS011;63221;51.860;-2.188;2023-08-06T09:57:02;1.95;;;0.60;;
74689;SDS011;63221;51.860;-2.188;2023-08-06T09:59:28;1.60;;;0.82;;
74689;SDS011;63221;51.860;-2.188;2023-08-06T10:01:55;0.97;;;0.30;;
74689;SDS011;63221;51.860;-2.188;2023-08-06T10:04:21;1.58;;;0.50;;
74689;SDS011;63221;51.860;-2.188;2023-08-06T10:06:47;1.95;;;0.65;;
74689;SDS011;63221;51.860;-2.188;2023-08-06T10:09:15;0.82;;;0.40;;
74689;SDS011;63221;51.860;-2.188;2023-08-06T10:11:42;1.03;;;0.60;;
74689;SDS011;63221;51.860;-2.188;2023-08-06T10:14:12;0.85;;;0.30;;
74689;SDS011;63221;51.860;-2.188;2023-08-06T10:16:41;0.90;;;0.32;;
74689;SDS011;63221;51.860;-2.188;2023-08-06T10:19:07;2.40;;;0.77;;
74689;SDS011;63221;51.860;-2.188;2023-08-06T10:21:34;0.90;;;0.75;;
74689;SDS011;63221;51.860;-2.188;2023-08-06T10:24:00;0.97;;;0.40;;
74689;SDS011;63221;51.860;-2.188;2023-08-06T10:26:27;1.17;;;1.08;;
74689;SDS011;63221;51.860;-2.188;2023-08-06T10:28:53;1.63;;;1.42;;
74689;SDS011;63221;51.860;-2.188;2023-08-06T10:31:18;2.10;;;0.70;;
74689;SDS011;63221;51.860;-2.188;2023-08-06T10:33:45;1.02;;;0.93;;
74689;SDS011;63221;51.860;-2.188;2023-08-06T10:36:12;1.00;;;0.60;;
74689;SDS011;63221;51.860;-2.188;2023-08-06T10:38:48;1.52;;;0.52;;
74689;SDS011;63221;51.860;-2.188;2023-08-06T10:41:15;0.63;;;0.63;;
74689;SDS011;63221;51.860;-2.188;2023-08-06T10:43:42;0.98;;;0.60;;
74689;SDS011;63221;51.860;-2.188;2023-08-06T10:46:10;4.78;;;0.93;;
74689;SDS011;63221;51.860;-2.188;2023-08-06T10:48:37;1.37;;;0.80;;
74689;SDS011;63221;51.860;-2.188;2023-08-06T10:51:07;0.75;;;0.20;;
74689;SDS011;63221;51.860;-2.188;2023-08-06T10:53:33;0.85;;;0.50;;
74689;SDS011;63221;51.860;-2.188;2023-08-06T10:55:59;0.90;;;0.30;;
74689;SDS011;63221;51.860;-2.188;2023-08-06T10:58:25;1.67;;;0.75;;
74689;SDS011;63221;51.860;-2.188;2023-08-06T11:00:51;0.80;;;0.53;;
74689;SDS011;63221;51.860;-2.188;2023-08-06T11:03:16;1.20;;;0.43;;
74689;SDS011;63221;51.860;-2.188;2023-08-06T11:05:48;2.30;;;0.60;;
74689;SDS011;63221;51.860;-2.188;2023-08-06T11:08:22;0.80;;;0.60;;
74689;SDS011;63221;51.860;-2.188;2023-08-06T11:10:51;1.85;;;0.55;;
74689;SDS011;63221;51.860;-2.188;2023-08-06T11:13:16;0.90;;;0.70;;
74689;SDS011;63221;51.860;-2.188;2023-08-06T11:15:43;1.45;;;0.70;;
74689;SDS011;63221;51.860;-2.188;2023-08-06T11:18:09;1.13;;;0.57;;
74689;SDS011;63221;51.860;-2.188;2023-08-06T11:20:35;1.40;;;0.63;;
74689;SDS011;63221;51.860;-2.188;2023-08-06T11:23:01;0.98;;;0.52;;
74689;SDS011;63221;51.860;-2.188;2023-08-06T11:25:27;1.03;;;0.93;;
74689;SDS011;63221;51.860;-2.188;2023-08-06T11:27:52;0.85;;;0.30;;
74689;SDS011;63221;51.860;-2.188;2023-08-06T11:30:18;2.03;;;0.40;;
74689;SDS011;63221;51.860;-2.188;2023-08-06T11:32:46;0.60;;;0.43;;
74689;SDS011;63221;51.860;-2.188;2023-08-06T11:35:13;0.63;;;0.32;;
74689;SDS011;63221;51.860;-2.188;2023-08-06T11:37:39;0.95;;;0.57;;
74689;SDS011;63221;51.860;-2.188;2023-08-06T11:40:09;1.23;;;0.40;;
74689;SDS011;63221;51.860;-2.188;2023-08-06T11:42:36;0.70;;;0.68;;
74689;SDS011;63221;51.860;-2.188;2023-08-06T11:45:04;0.70;;;0.50;;
74689;SDS011;63221;51.860;-2.188;2023-08-06T11:47:30;1.00;;;0.55;;
74689;SDS011;63221;51.860;-2.188;2023-08-06T11:49:55;1.03;;;0.47;;
74689;SDS011;63221;51.860;-2.188;2023-08-06T11:52:24;0.93;;;0.73;;
74689;SDS011;63221;51.860;-2.188;2023-08-06T11:55:04;0.80;;;0.57;;
74689;SDS011;63221;51.860;-2.188;2023-08-06T11:57:36;0.47;;;0.20;;
74689;SDS011;63221;51.860;-2.188;2023-08-06T12:00:05;0.93;;;0.60;;
74689;SDS011;63221;51.860;-2.188;2023-08-06T12:02:32;0.67;;;0.43;;
74689;SDS011;63221;51.860;-2.188;2023-08-06T12:07:30;1.63;;;0.73;;
74689;SDS011;63221;51.860;-2.188;2023-08-06T12:09:56;1.40;;;0.68;;
74689;SDS011;63221;51.860;-2.188;2023-08-06T12:12:22;1.17;;;1.00;;
74689;SDS011;63221;51.860;-2.188;2023-08-06T12:14:48;0.67;;;0.30;;
74689;SDS011;63221;51.860;-2.188;2023-08-06T12:17:14;0.75;;;0.25;;
74689;SDS011;63221;51.860;-2.188;2023-08-06T12:19:40;1.23;;;0.80;;
74689;SDS011;63221;51.860;-2.188;2023-08-06T12:22:05;0.87;;;0.87;;
74689;SDS011;63221;51.860;-2.188;2023-08-06T12:24:30;0.80;;;0.70;;
74689;SDS011;63221;51.860;-2.188;2023-08-06T12:27:00;0.98;;;0.70;;
74689;SDS011;63221;51.860;-2.188;2023-08-06T12:29:27;2.42;;;0.73;;
74689;SDS011;63221;51.860;-2.188;2023-08-06T12:31:53;0.80;;;0.40;;
74689;SDS011;63221;51.860;-2.188;2023-08-06T12:34:18;0.90;;;0.43;;
74689;SDS011;63221;51.860;-2.188;2023-08-06T12:36:44;0.83;;;0.73;;
74689;SDS011;63221;51.860;-2.188;2023-08-06T12:39:09;0.67;;;0.30;;
74689;SDS011;63221;51.860;-2.188;2023-08-06T12:41:35;1.00;;;0.70;;
74689;SDS011;63221;51.860;-2.188;2023-08-06T12:44:01;1.03;;;0.93;;
74689;SDS011;63221;51.860;-2.188;2023-08-06T12:46:26;1.13;;;0.47;;
74689;SDS011;63221;51.860;-2.188;2023-08-06T12:48:51;1.87;;;0.80;;
74689;SDS011;63221;51.860;-2.188;2023-08-06T12:51:17;1.13;;;0.93;;
74689;SDS011;63221;51.860;-2.188;2023-08-06T12:53:42;1.13;;;0.50;;
74689;SDS011;63221;51.860;-2.188;2023-08-06T12:56:08;1.13;;;0.90;;
74689;SDS011;63221;51.860;-2.188;2023-08-06T12:58:33;0.98;;;0.77;;
74689;SDS011;63221;51.860;-2.188;2023-08-06T13:00:59;1.27;;;0.77;;
74689;SDS011;63221;51.860;-2.188;2023-08-06T13:03:24;1.47;;;0.63;;
74689;SDS011;63221;51.860;-2.188;2023-08-06T13:05:49;0.80;;;0.50;;
74689;SDS011;63221;51.860;-2.188;2023-08-06T13:08:15;0.85;;;0.57;;
74689;SDS011;63221;51.860;-2.188;2023-08-06T13:10:40;1.00;;;0.80;;
74689;SDS011;63221;51.860;-2.188;2023-08-06T13:13:06;8.07;;;1.00;;
74689;SDS011;63221;51.860;-2.188;2023-08-06T13:15:31;1.20;;;0.50;;
74689;SDS011;63221;51.860;-2.188;2023-08-06T13:17:56;1.33;;;0.80;;
74689;SDS011;63221;51.860;-2.188;2023-08-06T13:20:22;1.20;;;0.82;;
74689;SDS011;63221;51.860;-2.188;2023-08-06T13:22:48;0.80;;;0.67;;
74689;SDS011;63221;51.860;-2.188;2023-08-06T13:25:15;1.27;;;0.90;;
74689;SDS011;63221;51.860;-2.188;2023-08-06T13:27:42;0.77;;;0.60;;
74689;SDS011;63221;51.860;-2.188;2023-08-06T13:30:09;1.05;;;0.85;;
74689;SDS011;63221;51.860;-2.188;2023-08-06T13:32:35;0.77;;;0.50;;
74689;SDS011;63221;51.860;-2.188;2023-08-06T13:35:02;1.10;;;0.68;;
74689;SDS011;63221;51.860;-2.188;2023-08-06T13:37:29;0.95;;;0.73;;
74689;SDS011;63221;51.860;-2.188;2023-08-06T13:39:54;1.10;;;0.50;;
74689;SDS011;63221;51.860;-2.188;2023-08-06T13:42:20;0.97;;;0.80;;
74689;SDS011;63221;51.860;-2.188;2023-08-06T13:44:45;0.95;;;0.40;;
74689;SDS011;63221;51.860;-2.188;2023-08-06T13:47:10;1.83;;;0.67;;
74689;SDS011;63221;51.860;-2.188;2023-08-06T13:49:36;2.00;;;1.10;;
74689;SDS011;63221;51.860;-2.188;2023-08-06T13:52:01;1.50;;;0.67;;
74689;SDS011;63221;51.860;-2.188;2023-08-06T13:54:27;1.17;;;0.60;;
74689;SDS011;63221;51.860;-2.188;2023-08-06T13:56:52;2.13;;;0.67;;
74689;SDS011;63221;51.860;-2.188;2023-08-06T13:59:18;1.47;;;0.87;;
74689;SDS011;63221;51.860;-2.188;2023-08-06T14:01:45;1.58;;;0.50;;
74689;SDS011;63221;51.860;-2.188;2023-08-06T14:04:10;1.65;;;0.70;;
74689;SDS011;63221;51.860;-2.188;2023-08-06T14:06:37;0.63;;;0.22;;
74689;SDS011;63221;51.860;-2.188;2023-08-06T14:09:02;1.07;;;0.97;;
74689;SDS011;63221;51.860;-2.188;2023-08-06T14:11:28;0.90;;;0.50;;
74689;SDS011;63221;51.860;-2.188;2023-08-06T14:13:53;1.60;;;0.68;;
74689;SDS011;63221;51.860;-2.188;2023-08-06T14:16:19;1.37;;;1.23;;
74689;SDS011;63221;51.860;-2.188;2023-08-06T14:18:44;2.77;;;0.57;;
74689;SDS011;63221;51.860;-2.188;2023-08-06T14:21:09;1.73;;;0.67;;
74689;SDS011;63221;51.860;-2.188;2023-08-06T14:23:35;1.37;;;0.30;;
74689;SDS011;63221;51.860;-2.188;2023-08-06T14:26:00;1.98;;;1.02;;
74689;SDS011;63221;51.860;-2.188;2023-08-06T14:28:26;1.47;;;0.70;;
74689;SDS011;63221;51.860;-2.188;2023-08-06T14:30:51;1.53;;;0.93;;
74689;SDS011;63221;51.860;-2.188;2023-08-06T14:33:17;0.98;;;0.60;;
74689;SDS011;63221;51.860;-2.188;2023-08-06T14:35:42;1.50;;;0.63;;